Flight Track Log - Related Links

Times and Time Zones

All times are in EDT time to prevent confusion due to time zone crossing. See the SKW5535 flight status page for this flight to view local times or setup timezone preferences in your user account.

Time Position Orientation Groundspeed Altitude Reporting Facility
EDT Latitude Longitude Course Direction KTS MPH feet Rate Location/Type
Sat 02:56:01 PM 46.9839 -114.2100 311° West 217 250 6,900  Level Salt Lake Center
Sat 02:57:00 PM 46.6899 -113.7318 180° South  Level Estimated
Sat 02:57:02 PM 47.0308 -114.2869 312° West 233 268 9,500  Level Salt Lake Center
Sat 02:58:00 PM 46.6142 -113.6129 126° Southeast  Level Estimated
Sat 02:58:04 PM 47.0486 -114.3747 287° West 255 293 11,300  Level Salt Lake Center
Sat 02:59:00 PM 46.5383 -113.4943 139° Southeast  Level Estimated
Sat 02:59:06 PM 46.9836 -114.3583 170° South 270 311 13,400  Level Salt Lake Center
Sat 03:00:00 PM 46.4624 -113.3760 131° Southeast  Level Estimated
Sat 03:00:07 PM 46.9194 -114.2664 136° Southeast 301 346 15,100  Level Salt Lake Center
Sat 03:01:09 PM 46.8586 -114.1664 132° Southeast 334 384 16,700 1,500 Climbing Salt Lake Center
Sat 03:02:11 PM 46.7897 -114.0511 131° Southeast 355 409 18,200 1,317 Climbing Salt Lake Center
Sat 03:03:12 PM 46.7236 -113.9408 131° Southeast 362 417 19,400 1,220 Climbing Salt Lake Center
Sat 03:04:14 PM 46.6553 -113.8258 131° Southeast 372 428 20,700 1,122 Climbing Salt Lake Center
Sat 03:05:15 PM 46.5867 -113.7094 131° Southeast 381 438 21,700 1,024 Climbing Salt Lake Center
Sat 03:06:17 PM 46.5150 -113.5919 132° Southeast 388 447 22,800 1,065 Climbing Salt Lake Center
Sat 03:07:19 PM 46.4433 -113.4719 131° Southeast 394 453 23,900 1,073 Climbing Salt Lake Center
Sat 03:08:20 PM 46.3703 -113.3506 131° Southeast 403 464 25,000 878 Climbing Salt Lake Center
Sat 03:09:22 PM 46.2892 -113.2181 132° Southeast 408 470 25,700 774 Climbing Salt Lake Center
Sat 03:10:24 PM 46.2056 -113.0808 131° Southeast 408 470 26,600 732 Climbing Salt Lake Center
Sat 03:11:25 PM 46.1308 -112.9581 131° Southeast 412 474 27,200 683 Climbing Salt Lake Center
Sat 03:12:27 PM 46.0478 -112.8222 131° Southeast 414 476 28,000 677 Climbing Salt Lake Center
Sat 03:13:29 PM 45.9756 -112.7053 132° Southeast 413 475 28,600 537 Climbing Salt Lake Center
Sat 03:14:30 PM 45.9019 -112.5875 132° Southeast 412 474 29,100 683 Climbing Salt Lake Center
Sat 03:15:32 PM 45.8158 -112.4494 132° Southeast 414 476 30,000 774 Climbing Salt Lake Center
Sat 03:16:34 PM 45.7436 -112.3342 132° Southeast 409 471 30,700 683 Climbing Salt Lake Center
Sat 03:17:35 PM 45.6592 -112.2003 132° Southeast 406 467 31,400 634 Climbing Salt Lake Center
Sat 03:18:37 PM 45.5881 -112.0883 132° Southeast 400 460 32,000 726 Climbing Salt Lake Center
Sat 03:19:39 PM 45.5044 -111.9569 132° Southeast 400 460 32,900 488 Climbing Salt Lake Center
Sat 03:20:40 PM 45.4331 -111.8464 133° Southeast 397 457 33,000 49 Climbing Salt Lake Center
Sat 03:21:42 PM 45.3525 -111.7456 139° Southeast 401 461 33,000  Level Salt Lake Center
Sat 03:22:44 PM 45.2472 -111.6375 144° Southeast 414 476 33,000  Level Salt Lake Center
Sat 03:23:46 PM 45.1569 -111.5433 144° Southeast 417 480 33,000  Level Salt Lake Center
Sat 03:24:48 PM 45.0664 -111.4017 132° Southeast 429 494 33,000  Level Salt Lake Center
Sat 03:25:49 PM 45.0261 -111.2392 109° East 451 519 33,000  Level Salt Lake Center
Sat 03:26:51 PM 44.9967 -111.0706 104° East 457 526 33,000  Level Salt Lake Center
Sat 03:27:53 PM 44.9639 -110.8753 103° East 457 526 33,000  Level Salt Lake Center
Sat 03:28:55 PM 44.9381 -110.7081 102° East 455 524 33,000  Level Salt Lake Center
Sat 03:29:57 PM 44.9089 -110.5147 102° East 452 520 33,000  Level Salt Lake Center
Sat 03:30:58 PM 44.8622 -110.3647 114° Southeast 442 509 33,000  Level Salt Lake Center
Sat 03:32:00 PM 44.7697 -110.2358 135° Southeast 424 488 33,000  Level Salt Lake Center
Sat 03:33:02 PM 44.6856 -110.1314 139° Southeast 420 483 33,000  Level Salt Lake Center
Sat 03:34:04 PM 44.6025 -110.0247 138° Southeast 420 483 33,000  Level Salt Lake Center
Sat 03:35:06 PM 44.5067 -109.8989 137° Southeast 422 486 33,000  Level Salt Lake Center
Sat 03:36:08 PM 44.4225 -109.7928 138° Southeast 424 488 33,000  Level Salt Lake Center
Sat 03:37:10 PM 44.3261 -109.6694 138° Southeast 421 484 33,000  Level Salt Lake Center
Sat 03:38:11 PM 44.2433 -109.5647 138° Southeast 419 482 33,000  Level Salt Lake Center
Sat 03:39:13 PM 44.1464 -109.4425 138° Southeast 420 483 33,000  Level Salt Lake Center
Sat 03:40:15 PM 44.0650 -109.3392 138° Southeast 416 479 33,000  Level Salt Lake Center
Sat 03:41:17 PM 43.9692 -109.2192 138° Southeast 415 478 33,000  Level Salt Lake Center
Sat 03:42:19 PM 43.8867 -109.1167 138° Southeast 415 478 33,000  Level Salt Lake Center
Sat 03:43:21 PM 43.8047 -109.0136 138° Southeast 415 478 33,000  Level Salt Lake Center
Sat 03:44:23 PM 43.7031 -108.8883 138° Southeast 419 482 33,000  Level Salt Lake Center
Sat 03:45:24 PM 43.6206 -108.7844 138° Southeast 418 481 33,000  Level Salt Lake Center
Sat 03:46:26 PM 43.5361 -108.6822 139° Southeast 422 486 33,000  Level Salt Lake Center
Sat 03:47:28 PM 43.4383 -108.5625 138° Southeast 421 484 33,000  Level Salt Lake Center
Sat 03:48:30 PM 43.3544 -108.4594 138° Southeast 421 484 33,000  Level Salt Lake Center
Sat 03:49:32 PM 43.2567 -108.3411 139° Southeast 420 483 33,000  Level Salt Lake Center
Sat 03:50:33 PM 43.1725 -108.2397 139° Southeast 421 484 33,000  Level Salt Lake Center
Sat 03:51:35 PM 43.0739 -108.1194 138° Southeast 424 488 33,000  Level Salt Lake Center
Sat 03:52:37 PM 42.9897 -108.0200 139° Southeast 420 483 33,000  Level Salt Lake Center
Sat 03:53:39 PM 42.9042 -107.9164 138° Southeast 425 489 33,000  Level Salt Lake Center
Sat 03:55:42 PM 42.7186 -107.6956 139° Southeast 427 491 33,000  Level Salt Lake Center
Sat 03:56:44 PM 42.6175 -107.5767 139° Southeast 429 494 33,000  Level Salt Lake Center
Sat 03:57:46 PM 42.5319 -107.4744 139° Southeast 429 494 33,000  Level Salt Lake Center
Sat 03:58:47 PM 42.4300 -107.3561 139° Southeast 430 495 33,000  Level Salt Lake Center
Sat 03:59:49 PM 42.3433 -107.2544 139° Southeast 430 495 33,000  Level Salt Lake Center
Sat 04:00:51 PM 42.2544 -107.1522 140° Southeast 435 501 33,000  Level Salt Lake Center
Sat 04:01:52 PM 42.1519 -107.0347 140° Southeast 433 498 33,000  Level Salt Lake Center
Sat 04:02:54 PM 42.0636 -106.9364 140° Southeast 431 496 33,000  Level Salt Lake Center
Sat 04:03:56 PM 41.9597 -106.8206 140° Southeast 433 498 33,000  Level Salt Lake Center
Sat 04:04:58 PM 41.8697 -106.7206 140° Southeast 435 501 33,000  Level Salt Lake Center
Sat 04:05:59 PM 41.7761 -106.6181 141° Southeast 440 506 33,000  Level Salt Lake Center
Sat 04:07:12 PM 41.6556 -106.4864 141° Southeast 437 503 33,000  Level Denver Center
Sat 04:08:14 PM 41.5653 -106.3881 141° Southeast 437 503 33,000  Level Denver Center
Sat 04:09:15 PM 41.4617 -106.2750 141° Southeast 434 499 33,000  Level Denver Center
Sat 04:10:17 PM 41.3725 -106.1783 141° Southeast 433 498 33,000  Level Denver Center
Sat 04:11:19 PM 41.2689 -106.0650 141° Southeast 432 497 33,000  Level Denver Center
Sat 04:12:20 PM 41.1800 -105.9708 141° Southeast 429 494 33,000  Level Denver Center
Sat 04:13:22 PM 41.0758 -105.8569 140° Southeast 434 499 33,000  Level Denver Center
Sat 04:14:24 PM 40.9911 -105.7675 141° Southeast 430 495 33,000 -1,463 Level Denver Center
Sat 04:15:25 PM 40.9006 -105.6722 141° Southeast 418 481 30,000 -3,512 Descending Denver Center
Sat 04:16:27 PM 40.7906 -105.5550 141° Southeast 424 488 25,800 -3,774 Descending Denver Center
Sat 04:17:29 PM 40.6989 -105.4572 141° Southeast 424 488 22,200 -3,463 Descending Denver Center
Sat 04:18:30 PM 40.6103 -105.3619 141° Southeast 413 475 18,700 -2,537 Descending Denver Center
Sat 04:19:32 PM 40.5264 -105.2742 141° Southeast 391 450 17,000 -1,317 Descending Denver Center
Sat 04:20:33 PM 40.4517 -105.2003 143° Southeast 329 379 16,000 -1,024 Descending Denver Center
Sat 04:21:35 PM 40.4428 -105.0761 95° East 326 375 14,900 -1,210 Descending Denver Center
Sat 04:22:37 PM 40.4311 -104.9597 97° East 324 373 13,500 -1,415 Descending Denver Center
Sat 04:23:38 PM 40.4178 -104.8461 99° East 317 365 12,000 -1,220 Descending Denver Center
Sat 04:24:40 PM 40.3686 -104.7597 127° Southeast 289 333 11,000 -484 Descending Denver Center
Sat 04:25:42 PM 40.3050 -104.7183 154° Southeast 257 296 11,000  Level Denver Center
Sat 04:26:43 PM 40.2422 -104.6831 157° South 248 285 11,000 -146 Level Denver Center
Sat 04:27:45 PM 40.1728 -104.6825 180° South 231 266 10,700 -823 Descending Denver Center
Sat 04:28:47 PM 40.1078 -104.6853 182° South 232 267 9,300 -1,268 Descending Denver Center
Sat 04:29:48 PM 40.0436 -104.6850 180° South 230 265 8,100 -1,171 Descending Denver Center
Sat 04:30:50 PM 39.9772 -104.6864 181° South 222 255 6,900 -968 Descending Denver Center
Sat 04:31:52 PM 39.9314 -104.6864 180° South 165 190 6,100 -732 Descending Denver Center
Sat 04:32:53 PM 39.8856 -104.6872 181° South 155 178 5,400 -689 Descending Denver Center

Login

Don't have an account? Register now (free) for customized features, flight alerts, and more!